»·PEaware :: SKY525 KORS-KEAT

SKY525 :: KORS-KEAT

FLIGHT INFORMATION

Flight Status: Arrived
Operator:
Skymark Airlines
More flights by this operator :: More flights under this callsign
Pilot: Kim B. (19519)
Aircraft: DORNIER 228
(D228)
More flights by this aircraft type
Origin: KORS Orcas I
United States
Destination: KEAT Pangborn Meml
United States
More flights between these airports :: More routes between these airports
Route: FEGBA2 FEGBA DCT PAE V23 SEA V2 ELN V25 EAT
File this flight plan on PilotEdge
Remarks: SKY-3
Altitude:
(Current/Filed)
9,000ft
Speed:
(Current/Filed)
190kts
Departed: 03-Nov-18 05:28 PM
Arrived: 03-Nov-18 06:36 PM
Distance/Time
Traveled:
134nm/1:08
Distance/Time
To Go:
Arrived

Flight Plot

Page will automatically refresh every two minutes.

Flight plan parsing failed; only flown route is shown


Map Options




Map Legend


Flown Route
Filed Route
Departure Airport
Arrival Airport
Navaid (VOR, NDB)
Fix

Horizontal Profiles

Position Reports

Time Latitude Longitude Heading Altitude Ground
Speed
03-Nov-18 17:16 48.705966 -122.909553 180 37ft 0kts
03-Nov-18 17:17 48.705966 -122.909553 180 37ft 0kts
03-Nov-18 17:18 48.705966 -122.909553 180 37ft 0kts
03-Nov-18 17:19 48.705966 -122.909553 180 37ft 0kts
03-Nov-18 17:20 48.705966 -122.909553 180 37ft 0kts
03-Nov-18 17:21 48.705966 -122.909553 180 37ft 0kts
03-Nov-18 17:22 48.705966 -122.909553 180 37ft 0kts
03-Nov-18 17:23 48.705966 -122.909553 180 37ft 0kts
03-Nov-18 17:24 48.705966 -122.909553 180 37ft 0kts
03-Nov-18 17:25 48.705966 -122.909553 180 37ft 0kts
03-Nov-18 17:26 48.704969 -122.909785 75 39ft 7kts
03-Nov-18 17:27 48.710912 -122.909981 0 15ft 23kts
03-Nov-18 17:28 48.711983 -122.910004 334 15ft 0kts
03-Nov-18 17:29 48.711983 -122.910004 334 15ft 0kts
03-Nov-18 17:30 48.712133 -122.910322 270 15ft 3kts
03-Nov-18 17:31 48.698321 -122.907373 145 584ft 103kts
03-Nov-18 17:32 48.664452 -122.907225 178 1573ft 122kts
03-Nov-18 17:33 48.633991 -122.907824 179 2973ft 118kts
03-Nov-18 17:34 48.610710 -122.908649 181 4052ft 113kts
03-Nov-18 17:35 48.587405 -122.909513 182 5175ft 114kts
03-Nov-18 17:36 48.558712 -122.910599 186 6976ft 115kts
03-Nov-18 17:37 48.530254 -122.909928 163 8596ft 128kts
03-Nov-18 17:38 48.499700 -122.880023 151 9047ft 189kts
03-Nov-18 17:39 48.461327 -122.839835 150 9052ft 209kts
03-Nov-18 17:40 48.421430 -122.797888 150 9071ft 212kts
03-Nov-18 17:41 48.378374 -122.752736 150 9088ft 213kts
03-Nov-18 17:42 48.350045 -122.723094 150 9096ft 215kts
03-Nov-18 17:43 48.350045 -122.723094 150 9096ft 215kts
03-Nov-18 17:44 48.350045 -122.723094 150 9096ft 215kts
03-Nov-18 17:45 48.328847 -122.700936 150 9099ft 217kts
03-Nov-18 17:46 48.290486 -122.660889 150 9101ft 217kts
03-Nov-18 17:47 48.246588 -122.615153 150 8989ft 219kts
03-Nov-18 17:48 48.212843 -122.580062 150 8989ft 218kts
03-Nov-18 17:49 48.177603 -122.543482 150 8991ft 217kts
03-Nov-18 17:50 48.150737 -122.515636 150 8995ft 217kts
03-Nov-18 17:51 48.102702 -122.465940 150 8995ft 217kts
03-Nov-18 17:52 48.055156 -122.416862 150 8995ft 217kts
03-Nov-18 17:53 48.015818 -122.376339 150 8995ft 217kts
03-Nov-18 17:54 47.974818 -122.334188 151 8992ft 217kts
03-Nov-18 17:55 47.929213 -122.280991 147 8992ft 218kts
03-Nov-18 17:56 47.884096 -122.227171 147 8995ft 218kts
03-Nov-18 17:57 47.840616 -122.175355 147 8995ft 219kts
03-Nov-18 17:58 47.797324 -122.123872 147 8995ft 219kts
03-Nov-18 17:59 47.753851 -122.072287 147 8995ft 219kts
03-Nov-18 18:00 47.711678 -122.022352 147 8995ft 219kts
03-Nov-18 18:01 47.668590 -121.971444 147 8996ft 219kts
03-Nov-18 18:02 47.625273 -121.920377 147 8996ft 219kts
03-Nov-18 18:03 47.583508 -121.871244 147 8996ft 219kts
03-Nov-18 18:04 47.540835 -121.821151 147 8996ft 219kts
03-Nov-18 18:05 47.499882 -121.773175 147 8996ft 219kts
03-Nov-18 18:06 47.454068 -121.719623 147 8996ft 219kts
03-Nov-18 18:07 47.407679 -121.665519 147 9022ft 218kts
03-Nov-18 18:08 47.363099 -121.613651 147 9023ft 219kts
03-Nov-18 18:09 47.315620 -121.558530 147 9023ft 219kts
03-Nov-18 18:10 47.269779 -121.505434 147 9023ft 219kts
03-Nov-18 18:11 47.243308 -121.423680 112 9023ft 231kts
03-Nov-18 18:12 47.224792 -121.340693 113 9022ft 232kts
03-Nov-18 18:13 47.206718 -121.259655 113 9020ft 231kts
03-Nov-18 18:14 47.190824 -121.188617 113 9021ft 231kts
03-Nov-18 18:15 47.177462 -121.129721 109 9020ft 234kts
03-Nov-18 18:16 47.157036 -121.038459 109 9018ft 237kts
03-Nov-18 18:17 47.151992 -120.959620 58 9035ft 231kts
03-Nov-18 18:18 47.181326 -120.876491 61 9018ft 233kts
03-Nov-18 18:19 47.209512 -120.791939 61 9019ft 233kts
03-Nov-18 18:20 47.237416 -120.707501 61 9019ft 233kts
03-Nov-18 18:21 47.265402 -120.622527 61 9019ft 233kts
03-Nov-18 18:22 47.293504 -120.536923 61 9019ft 233kts
03-Nov-18 18:23 47.321609 -120.451021 61 9020ft 233kts
03-Nov-18 18:24 47.349583 -120.365230 61 9020ft 233kts
03-Nov-18 18:25 47.376766 -120.281592 62 9017ft 233kts
03-Nov-18 18:26 47.400463 -120.194521 90 8801ft 239kts
03-Nov-18 18:27 47.400090 -120.100244 89 8005ft 228kts
03-Nov-18 18:28 47.400335 -120.007177 89 7160ft 226kts
03-Nov-18 18:29 47.389873 -119.916775 119 6158ft 225kts
03-Nov-18 18:30 47.345143 -119.858053 161 5159ft 216kts
03-Nov-18 18:31 47.290772 -119.852660 197 5052ft 186kts
03-Nov-18 18:32 47.248009 -119.891649 233 4692ft 189kts
03-Nov-18 18:33 47.232914 -119.964188 274 3962ft 188kts
03-Nov-18 18:34 47.253505 -120.029554 313 3953ft 177kts
03-Nov-18 18:35 47.296122 -120.067157 330 3712ft 188kts
03-Nov-18 18:36 47.339455 -120.100167 329 3051ft 163kts
03-Nov-18 18:37 47.364459 -120.146761 272 2342ft 165kts
03-Nov-18 18:38 47.382701 -120.183392 313 1656ft 98kts
03-Nov-18 18:39 47.396188 -120.201309 43 1240ft 3kts
03-Nov-18 18:40 47.396762 -120.200043 109 1247ft 5kts
03-Nov-18 18:41 47.396657 -120.199820 128 1248ft 0kts
03-Nov-18 18:42 47.396657 -120.199820 128 1248ft 0kts

Navigation Log

Ident Type
Flight plan parsing failed, navigation log unavailable